Time;durP1;ratioP1;P1;durP2;ratioP2;P2;SDS_P1;SDS_P2;PMS_P1;PMS_P2;Temp;Humidity;BMP_temperature;BMP_pressure;BME280_temperature;BME280_humidity;BME280_pressure;Samples;Min_cycle;Max_cycle;Signal;HPM_P1;HPM_P2
2021/01/08 00:02:23;;;;;;;9.50;1.40;;;;;;;;;;5073370;28;20380;-40
2021/01/08 00:04:50;;;;;;;7.53;1.27;;;;;;;;;;5069178;28;20113;-40
2021/01/08 00:07:17;;;;;;;16.98;2.20;;;;;;;;;;5053636;28;20044;-40
2021/01/08 00:09:44;;;;;;;8.35;1.40;;;;;;;;;;5053506;28;20029;-38
2021/01/08 00:12:11;;;;;;;9.38;1.25;;;;;;;;;;5035874;28;20074;-39
2021/01/08 00:14:38;;;;;;;21.48;2.30;;;;;;;;;;5053638;28;20029;-38
2021/01/08 00:17:05;;;;;;;12.60;1.73;;;;;;;;;;5053368;28;20107;-41
2021/01/08 00:19:32;;;;;;;13.95;2.38;;;;;;;;;;5053484;28;20028;-38
2021/01/08 00:21:59;;;;;;;13.98;2.00;;;;;;;;;;5053315;28;20041;-39
2021/01/08 00:24:26;;;;;;;16.33;2.40;;;;;;;;;;5053551;28;20029;-38
2021/01/08 00:26:54;;;;;;;10.80;1.77;;;;;;;;;;5053405;28;20021;-43
2021/01/08 00:29:22;;;;;;;18.55;2.10;;;;;;;;;;5053359;28;20031;-39
2021/01/08 00:31:49;;;;;;;15.75;2.78;;;;;;;;;;5053028;28;20017;-41
2021/01/08 00:34:17;;;;;;;26.33;2.58;;;;;;;;;;5053105;28;20104;-41
2021/01/08 00:36:48;;;;;;;19.38;2.70;;;;;;;;;;5053197;28;20100;-43
2021/01/08 00:39:15;;;;;;;9.43;1.90;;;;;;;;;;5053510;28;20029;-39
2021/01/08 00:41:42;;;;;;;25.02;2.72;;;;;;;;;;5053123;28;20419;-39
2021/01/08 00:44:09;;;;;;;24.10;3.05;;;;;;;;;;5053120;28;20039;-40
2021/01/08 00:46:37;;;;;;;25.65;3.17;;;;;;;;;;5053292;28;20035;-41
2021/01/08 00:49:05;;;;;;;12.40;2.80;;;;;;;;;;5070227;28;20025;-38
2021/01/08 00:51:32;;;;;;;36.10;3.33;;;;;;;;;;5066326;28;20059;-38
2021/01/08 00:53:59;;;;;;;25.75;2.78;;;;;;;;;;5050331;28;20029;-38
2021/01/08 00:56:26;;;;;;;19.40;3.20;;;;;;;;;;5070820;28;20020;-37
2021/01/08 00:58:53;;;;;;;24.17;3.70;;;;;;;;;;5071936;28;20073;-37
2021/01/08 01:01:21;;;;;;;37.15;4.60;;;;;;;;;;5062281;28;20025;-37
2021/01/08 01:03:48;;;;;;;23.13;4.35;;;;;;;;;;5051873;28;20040;-39
2021/01/08 01:06:35;;;;;;;29.95;5.00;;;;;;;;;;5054108;28;20028;-38
2021/01/08 01:09:03;;;;;;;27.95;5.40;;;;;;;;;;5051838;28;20029;-40
2021/01/08 01:11:30;;;;;;;37.67;5.05;;;;;;;;;;5070650;28;20549;-40
2021/01/08 01:13:58;;;;;;;38.58;5.47;;;;;;;;;;5072011;28;20028;-41
2021/01/08 01:16:28;;;;;;;28.83;5.18;;;;;;;;;;5057087;28;20021;-40
2021/01/08 01:18:57;;;;;;;36.95;5.35;;;;;;;;;;5061649;28;20392;-41
2021/01/08 01:21:24;;;;;;;21.73;5.35;;;;;;;;;;5071847;28;20048;-41
2021/01/08 01:23:51;;;;;;;34.70;5.10;;;;;;;;;;5072066;28;20108;-40
2021/01/08 01:26:18;;;;;;;20.40;4.18;;;;;;;;;;5072283;28;20411;-40
2021/01/08 01:28:45;;;;;;;19.13;3.80;;;;;;;;;;5068774;28;20052;-41
2021/01/08 01:31:12;;;;;;;12.27;4.10;;;;;;;;;;5071890;28;20372;-41
2021/01/08 01:33:39;;;;;;;23.98;4.20;;;;;;;;;;5072177;28;20376;-41
2021/01/08 01:36:07;;;;;;;15.52;3.10;;;;;;;;;;5072109;28;20051;-41
2021/01/08 01:38:35;;;;;;;16.58;3.40;;;;;;;;;;5072066;28;20027;-40
2021/01/08 01:41:03;;;;;;;17.05;3.20;;;;;;;;;;5072001;28;20473;-40
2021/01/08 01:43:30;;;;;;;21.23;3.55;;;;;;;;;;5072148;28;20036;-40
2021/01/08 01:45:57;;;;;;;16.27;3.30;;;;;;;;;;5060723;28;20021;-42
2021/01/08 01:48:25;;;;;;;13.27;2.65;;;;;;;;;;5053236;28;20043;-40
2021/01/08 01:50:52;;;;;;;25.15;3.35;;;;;;;;;;5071369;28;20534;-41
2021/01/08 01:53:19;;;;;;;14.88;2.40;;;;;;;;;;5060273;28;20059;-40
2021/01/08 01:55:47;;;;;;;9.88;3.17;;;;;;;;;;5071734;28;20028;-41
2021/01/08 01:58:14;;;;;;;26.90;2.97;;;;;;;;;;5072003;28;20028;-41
2021/01/08 02:00:41;;;;;;;17.30;2.78;;;;;;;;;;5071041;28;20048;-39
2021/01/08 02:03:11;;;;;;;12.45;3.13;;;;;;;;;;5067646;28;20496;-40
2021/01/08 02:05:39;;;;;;;14.80;2.80;;;;;;;;;;5071207;28;20067;-40
2021/01/08 02:08:11;;;;;;;16.27;2.42;;;;;;;;;;5070900;28;20016;-40
2021/01/08 02:10:46;;;;;;;17.38;2.85;;;;;;;;;;5067011;28;20068;-41
2021/01/08 02:13:18;;;;;;;7.53;2.35;;;;;;;;;;5054773;28;20024;-41
2021/01/08 02:15:46;;;;;;;14.23;3.10;;;;;;;;;;5071489;28;20529;-42
2021/01/08 02:18:13;;;;;;;13.43;2.33;;;;;;;;;;5059689;28;20461;-42
2021/01/08 02:20:41;;;;;;;16.42;2.42;;;;;;;;;;5074554;28;20056;-40
2021/01/08 02:23:11;;;;;;;17.83;2.22;;;;;;;;;;5073113;28;20474;-39
2021/01/08 02:25:39;;;;;;;13.63;2.15;;;;;;;;;;5075005;28;20055;-41
2021/01/08 02:28:09;;;;;;;13.32;1.80;;;;;;;;;;5075376;28;20040;-41
2021/01/08 02:30:37;;;;;;;17.52;2.15;;;;;;;;;;5071821;28;20137;-42
2021/01/08 02:33:05;;;;;;;18.17;3.10;;;;;;;;;;5067428;28;20039;-45
2021/01/08 02:35:33;;;;;;;40.92;2.67;;;;;;;;;;5071912;28;20905;-49
2021/01/08 02:38:04;;;;;;;16.38;2.50;;;;;;;;;;5064264;28;20025;-48
2021/01/08 02:40:31;;;;;;;16.60;3.13;;;;;;;;;;5074785;28;20029;-44
2021/01/08 02:43:06;;;;;;;21.90;2.40;;;;;;;;;;5075115;28;20036;-45
2021/01/08 02:45:33;;;;;;;15.75;2.38;;;;;;;;;;5074929;28;20502;-45
2021/01/08 02:48:01;;;;;;;27.70;2.97;;;;;;;;;;5074556;28;20111;-43
2021/01/08 02:50:28;;;;;;;25.08;2.55;;;;;;;;;;5075014;28;20025;-44
2021/01/08 02:52:58;;;;;;;30.70;3.17;;;;;;;;;;5073909;28;20031;-45
2021/01/08 02:55:29;;;;;;;17.90;1.90;;;;;;;;;;5074587;28;20028;-43
2021/01/08 02:57:57;;;;;;;23.77;3.17;;;;;;;;;;5070399;28;20012;-45
2021/01/08 03:00:24;;;;;;;49.00;3.65;;;;;;;;;;5074437;28;20498;-54
2021/01/08 03:02:51;;;;;;;23.58;1.70;;;;;;;;;;5074008;28;20036;-51
2021/01/08 03:05:20;;;;;;;16.77;2.60;;;;;;;;;;5074805;28;20469;-47
2021/01/08 03:07:48;;;;;;;17.50;2.70;;;;;;;;;;5056419;28;20469;-43
2021/01/08 03:10:16;;;;;;;23.13;2.25;;;;;;;;;;5062675;28;20363;-41
2021/01/08 03:12:48;;;;;;;19.98;2.20;;;;;;;;;;5073791;28;20064;-40
2021/01/08 03:15:15;;;;;;;16.75;2.55;;;;;;;;;;5074464;28;20025;-40
2021/01/08 03:17:42;;;;;;;64.28;5.82;;;;;;;;;;5074126;28;20033;-42
2021/01/08 03:20:09;;;;;;;49.97;3.78;;;;;;;;;;5073942;28;20073;-46
2021/01/08 03:22:36;;;;;;;32.88;2.40;;;;;;;;;;5063257;28;20158;-44
2021/01/08 03:25:04;;;;;;;14.48;2.17;;;;;;;;;;5054830;28;20021;-42
2021/01/08 03:27:31;;;;;;;17.52;2.28;;;;;;;;;;5054426;28;20024;-45
2021/01/08 03:29:57;;;;;;;15.60;2.53;;;;;;;;;;5062857;28;20020;-42
2021/01/08 03:32:24;;;;;;;14.52;2.00;;;;;;;;;;5065865;28;20020;-42
2021/01/08 03:34:52;;;;;;;13.40;2.08;;;;;;;;;;5067301;28;20573;-41
2021/01/08 03:37:18;;;;;;;6.68;1.35;;;;;;;;;;5068770;28;20032;-44
2021/01/08 03:39:45;;;;;;;10.35;1.05;;;;;;;;;;5063880;28;20096;-40
2021/01/08 03:42:12;;;;;;;19.60;2.17;;;;;;;;;;5056428;28;20111;-39
2021/01/08 03:44:39;;;;;;;11.60;1.25;;;;;;;;;;5067391;28;20024;-40
2021/01/08 03:47:06;;;;;;;27.08;2.03;;;;;;;;;;5064306;28;20012;-42
2021/01/08 03:49:40;;;;;;;9.52;1.70;;;;;;;;;;5065155;28;20105;-47
2021/01/08 03:52:07;;;;;;;11.25;2.55;;;;;;;;;;5065244;28;20024;-46
2021/01/08 03:54:35;;;;;;;12.95;2.15;;;;;;;;;;5067795;28;20028;-40
2021/01/08 03:57:02;;;;;;;11.13;1.52;;;;;;;;;;5063228;28;20091;-45
2021/01/08 03:59:29;;;;;;;16.73;2.20;;;;;;;;;;5064153;28;20021;-39
2021/01/08 04:01:56;;;;;;;11.48;1.60;;;;;;;;;;5065238;28;20020;-41
2021/01/08 04:04:23;;;;;;;9.10;1.88;;;;;;;;;;5064120;28;20040;-39
2021/01/08 04:06:50;;;;;;;10.70;1.27;;;;;;;;;;5065439;28;20040;-42
2021/01/08 04:09:21;;;;;;;15.27;2.15;;;;;;;;;;5073329;28;20570;-41
2021/01/08 04:11:48;;;;;;;6.55;1.38;;;;;;;;;;5073265;28;20021;-41
2021/01/08 04:14:15;;;;;;;14.90;1.88;;;;;;;;;;5087994;28;20032;-40
2021/01/08 04:16:42;;;;;;;10.57;1.67;;;;;;;;;;5094456;28;20023;-42
2021/01/08 04:19:09;;;;;;;13.98;2.03;;;;;;;;;;5094256;28;20024;-39
2021/01/08 04:21:37;;;;;;;12.50;2.28;;;;;;;;;;5094160;28;20040;-40
2021/01/08 04:24:05;;;;;;;11.48;2.10;;;;;;;;;;5094460;28;20032;-44
2021/01/08 04:26:32;;;;;;;14.75;1.60;;;;;;;;;;5094091;28;20012;-46
2021/01/08 04:28:59;;;;;;;11.18;1.70;;;;;;;;;;5092107;28;20060;-42
2021/01/08 04:31:26;;;;;;;11.95;1.40;;;;;;;;;;5088398;28;20105;-44
2021/01/08 04:33:53;;;;;;;14.90;2.22;;;;;;;;;;5080572;28;20380;-43
2021/01/08 04:36:20;;;;;;;7.90;2.05;;;;;;;;;;5078953;28;20016;-40
2021/01/08 04:38:47;;;;;;;17.10;2.08;;;;;;;;;;5093054;28;20043;-41
2021/01/08 04:41:14;;;;;;;13.75;1.95;;;;;;;;;;5093312;28;20535;-41
2021/01/08 04:43:41;;;;;;;12.38;1.67;;;;;;;;;;5093830;28;20035;-41
2021/01/08 04:46:28;;;;;;;19.95;3.03;;;;;;;;;;5088976;28;20017;-43
2021/01/08 04:49:08;;;;;;;15.50;1.70;;;;;;;;;;5073501;28;20028;-44
2021/01/08 04:51:36;;;;;;;17.42;3.28;;;;;;;;;;5073532;28;20410;-43
2021/01/08 04:54:04;;;;;;;21.27;2.70;;;;;;;;;;5073291;28;20024;-40
2021/01/08 04:56:33;;;;;;;16.15;2.70;;;;;;;;;;5073236;28;20043;-49
2021/01/08 04:59:00;;;;;;;16.08;2.58;;;;;;;;;;5073498;28;20070;-57
2021/01/08 05:01:27;;;;;;;15.07;1.90;;;;;;;;;;5073143;28;20419;-43
2021/01/08 05:03:54;;;;;;;14.20;1.77;;;;;;;;;;5073236;28;20063;-41
2021/01/08 05:06:21;;;;;;;9.05;1.98;;;;;;;;;;5064839;28;20526;-42
2021/01/08 05:08:48;;;;;;;13.65;1.60;;;;;;;;;;5093524;28;20035;-44
2021/01/08 05:11:22;;;;;;;11.50;1.95;;;;;;;;;;5093328;28;20027;-40
2021/01/08 05:13:56;;;;;;;16.50;2.03;;;;;;;;;;5092952;28;20031;-43
2021/01/08 05:16:24;;;;;;;15.55;2.63;;;;;;;;;;5093282;28;20024;-51
2021/01/08 05:18:52;;;;;;;20.08;2.03;;;;;;;;;;5093261;28;20095;-48
2021/01/08 05:21:19;;;;;;;15.23;2.53;;;;;;;;;;5093082;28;20078;-40
2021/01/08 05:23:48;;;;;;;15.57;2.50;;;;;;;;;;5092899;28;20544;-41
2021/01/08 05:26:15;;;;;;;12.23;2.00;;;;;;;;;;5093181;28;20475;-41
2021/01/08 05:28:50;;;;;;;12.07;2.05;;;;;;;;;;5092874;28;20046;-43
2021/01/08 05:31:17;;;;;;;27.70;4.30;;;;;;;;;;5093311;28;20375;-46
2021/01/08 05:33:44;;;;;;;24.13;5.03;;;;;;;;;;5093163;28;20035;-43
2021/01/08 05:36:12;;;;;;;41.83;5.45;;;;;;;;;;5092978;28;20024;-39
2021/01/08 05:38:43;;;;;;;45.63;3.72;;;;;;;;;;5092775;28;20051;-45
2021/01/08 05:41:12;;;;;;;18.50;3.30;;;;;;;;;;5092910;28;20488;-42
2021/01/08 05:43:41;;;;;;;17.90;2.20;;;;;;;;;;5092936;28;20036;-39
2021/01/08 05:46:12;;;;;;;20.55;3.05;;;;;;;;;;5092930;28;20020;-42
2021/01/08 05:48:43;;;;;;;13.77;1.90;;;;;;;;;;5092762;28;20402;-40
2021/01/08 05:51:10;;;;;;;19.10;2.10;;;;;;;;;;5092904;28;20035;-40
2021/01/08 05:53:38;;;;;;;10.95;2.30;;;;;;;;;;5092744;28;20093;-40
2021/01/08 05:56:05;;;;;;;13.93;1.55;;;;;;;;;;5092720;28;20051;-41
2021/01/08 05:58:33;;;;;;;11.32;1.88;;;;;;;;;;5092834;28;20024;-41
2021/01/08 06:01:05;;;;;;;12.27;2.05;;;;;;;;;;5092718;28;20048;-40
2021/01/08 06:03:33;;;;;;;14.30;1.85;;;;;;;;;;5092676;28;20028;-40
2021/01/08 06:06:01;;;;;;;9.65;2.13;;;;;;;;;;5092474;28;20020;-41
2021/01/08 06:08:37;;;;;;;8.40;1.55;;;;;;;;;;5092666;28;20028;-40
2021/01/08 06:11:07;;;;;;;9.98;1.48;;;;;;;;;;5092635;28;20047;-45
2021/01/08 06:13:35;;;;;;;18.50;2.08;;;;;;;;;;5092334;28;20029;-43
2021/01/08 06:16:03;;;;;;;13.82;2.13;;;;;;;;;;5092532;28;20103;-46
2021/01/08 06:18:34;;;;;;;10.70;1.77;;;;;;;;;;5092827;28;20132;-40
2021/01/08 06:21:05;;;;;;;18.98;2.90;;;;;;;;;;5092070;28;20040;-44
2021/01/08 06:23:33;;;;;;;13.45;2.42;;;;;;;;;;5092386;28;20066;-41
2021/01/08 06:26:00;;;;;;;14.65;2.40;;;;;;;;;;5092581;28;20020;-42
2021/01/08 06:28:38;;;;;;;12.95;2.10;;;;;;;;;;5092306;28;20031;-41
2021/01/08 06:31:06;;;;;;;7.70;2.50;;;;;;;;;;5092538;28;20036;-42
2021/01/08 06:33:35;;;;;;;10.93;1.95;;;;;;;;;;5092223;28;20070;-39
2021/01/08 06:36:16;;;;;;;16.05;2.15;;;;;;;;;;5092556;28;20069;-45
2021/01/08 06:38:46;;;;;;;8.43;1.73;;;;;;;;;;5092552;28;20055;-43
2021/01/08 06:41:14;;;;;;;15.50;1.75;;;;;;;;;;5092357;28;20032;-41
2021/01/08 06:43:42;;;;;;;19.98;2.10;;;;;;;;;;5092006;28;20032;-41
2021/01/08 06:46:14;;;;;;;13.90;2.30;;;;;;;;;;5074166;28;20021;-41
2021/01/08 06:48:44;;;;;;;10.20;2.20;;;;;;;;;;5092376;28;20484;-40
2021/01/08 06:51:12;;;;;;;10.60;1.98;;;;;;;;;;5092187;28;20507;-43
2021/01/08 06:53:44;;;;;;;6.97;1.50;;;;;;;;;;5092264;28;20032;-44
2021/01/08 06:56:14;;;;;;;9.30;1.90;;;;;;;;;;5092273;28;20052;-45
2021/01/08 06:58:45;;;;;;;12.27;1.73;;;;;;;;;;5092147;28;20021;-41
2021/01/08 07:01:13;;;;;;;11.63;1.47;;;;;;;;;;5092386;28;20472;-41
2021/01/08 07:03:40;;;;;;;12.50;1.88;;;;;;;;;;5094466;28;20036;-42
2021/01/08 07:06:07;;;;;;;8.52;1.60;;;;;;;;;;5095636;28;20111;-46
2021/01/08 07:08:34;;;;;;;12.63;1.73;;;;;;;;;;5095729;28;20032;-40
2021/01/08 07:11:01;;;;;;;22.55;2.30;;;;;;;;;;5095783;28;20036;-40
2021/01/08 07:13:29;;;;;;;9.23;1.70;;;;;;;;;;5095385;28;20028;-46
2021/01/08 07:15:56;;;;;;;6.97;1.88;;;;;;;;;;5077318;28;20360;-43
2021/01/08 07:18:29;;;;;;;9.55;1.60;;;;;;;;;;5095746;28;20028;-41
2021/01/08 07:20:58;;;;;;;10.90;1.85;;;;;;;;;;5095323;28;20404;-40
2021/01/08 07:23:27;;;;;;;15.60;2.05;;;;;;;;;;5077043;28;20094;-43
2021/01/08 07:25:55;;;;;;;13.05;2.25;;;;;;;;;;5095360;28;20016;-40
2021/01/08 07:28:22;;;;;;;12.13;1.20;;;;;;;;;;5095417;28;20024;-39
2021/01/08 07:31:06;;;;;;;9.45;1.58;;;;;;;;;;5077081;28;20377;-41
2021/01/08 07:33:33;;;;;;;19.52;2.08;;;;;;;;;;5095272;28;20023;-44
2021/01/08 07:36:18;;;;;;;14.23;1.85;;;;;;;;;;5095086;28;20030;-44
2021/01/08 07:38:45;;;;;;;5.97;1.85;;;;;;;;;;5095071;28;20031;-40
2021/01/08 07:41:12;;;;;;;14.85;2.38;;;;;;;;;;5095288;28;20492;-42
2021/01/08 07:43:39;;;;;;;16.45;1.70;;;;;;;;;;5095029;28;20655;-42
2021/01/08 07:46:07;;;;;;;16.77;2.22;;;;;;;;;;5094901;28;20137;-44
2021/01/08 07:48:40;;;;;;;13.95;1.88;;;;;;;;;;5094889;28;20561;-41
2021/01/08 07:51:08;;;;;;;12.77;1.73;;;;;;;;;;5095143;28;20039;-41
2021/01/08 07:53:44;;;;;;;13.02;1.23;;;;;;;;;;5094665;28;20031;-42
2021/01/08 07:56:24;;;;;;;10.85;1.40;;;;;;;;;;5094784;28;20044;-43
2021/01/08 07:59:05;;;;;;;15.75;1.60;;;;;;;;;;5094707;28;20028;-42
2021/01/08 08:01:32;;;;;;;11.38;1.80;;;;;;;;;;5094641;28;20044;-41
2021/01/08 08:04:03;;;;;;;11.10;1.38;;;;;;;;;;5094642;28;20035;-40
2021/01/08 08:06:31;;;;;;;11.98;2.13;;;;;;;;;;5094669;28;20024;-40
2021/01/08 08:08:59;;;;;;;15.10;1.95;;;;;;;;;;5094424;28;20024;-41
2021/01/08 08:11:29;;;;;;;6.47;1.50;;;;;;;;;;5094727;28;20028;-42
2021/01/08 08:13:56;;;;;;;10.63;1.83;;;;;;;;;;5093427;28;20052;-41
2021/01/08 08:16:44;;;;;;;5.20;1.25;;;;;;;;;;5094043;28;20110;-41
2021/01/08 08:19:12;;;;;;;13.50;2.10;;;;;;;;;;5094416;28;20016;-41
2021/01/08 08:21:45;;;;;;;11.63;1.80;;;;;;;;;;5094258;28;20074;-42
2021/01/08 08:24:18;;;;;;;13.40;1.90;;;;;;;;;;5094375;28;20024;-40
2021/01/08 08:26:46;;;;;;;7.95;1.35;;;;;;;;;;5094192;28;20035;-41
2021/01/08 08:29:14;;;;;;;11.55;1.73;;;;;;;;;;5093922;28;20411;-40
2021/01/08 08:31:42;;;;;;;6.72;1.35;;;;;;;;;;5094008;28;20081;-41
2021/01/08 08:34:10;;;;;;;18.88;2.17;;;;;;;;;;5093878;28;20016;-40
2021/01/08 08:36:37;;;;;;;7.93;1.52;;;;;;;;;;5093833;28;20020;-40
2021/01/08 08:39:09;;;;;;;5.82;1.70;;;;;;;;;;5094173;28;20506;-40
2021/01/08 08:41:39;;;;;;;17.38;2.15;;;;;;;;;;5094152;28;20425;-41
2021/01/08 08:44:11;;;;;;;17.40;1.83;;;;;;;;;;5093768;28;20032;-40
2021/01/08 08:46:56;;;;;;;18.98;2.63;;;;;;;;;;5093803;28;20024;-43
2021/01/08 08:49:33;;;;;;;15.82;2.47;;;;;;;;;;5093784;28;20028;-43
2021/01/08 08:52:01;;;;;;;17.95;2.30;;;;;;;;;;5093777;28;20035;-43
2021/01/08 08:54:28;;;;;;;22.80;2.42;;;;;;;;;;5093750;28;20028;-44
2021/01/08 08:56:56;;;;;;;8.75;2.00;;;;;;;;;;5093471;28;20382;-40
2021/01/08 08:59:39;;;;;;;12.10;1.98;;;;;;;;;;5093566;28;20020;-41
2021/01/08 09:02:07;;;;;;;12.85;1.70;;;;;;;;;;5093143;28;20028;-42
2021/01/08 09:04:34;;;;;;;12.95;1.92;;;;;;;;;;5093370;28;20036;-41
2021/01/08 09:07:03;;;;;;;14.00;1.65;;;;;;;;;;5093360;28;20016;-43
2021/01/08 09:09:35;;;;;;;11.93;1.75;;;;;;;;;;5093432;28;20028;-41
2021/01/08 09:12:08;;;;;;;8.93;1.83;;;;;;;;;;5093522;28;20020;-41
2021/01/08 09:14:36;;;;;;;15.63;1.77;;;;;;;;;;5093349;28;20477;-41
2021/01/08 09:17:07;;;;;;;9.60;2.25;;;;;;;;;;5093133;28;20098;-41
2021/01/08 09:19:54;;;;;;;8.48;1.63;;;;;;;;;;5093160;28;20104;-41
2021/01/08 09:22:21;;;;;;;10.98;1.75;;;;;;;;;;5093046;28;20476;-41
2021/01/08 09:24:50;;;;;;;11.30;1.95;;;;;;;;;;5093354;28;20111;-42
2021/01/08 09:27:17;;;;;;;16.45;1.60;;;;;;;;;;5092919;28;20016;-41
2021/01/08 09:29:45;;;;;;;16.40;1.90;;;;;;;;;;5074677;28;20379;-41
2021/01/08 09:32:29;;;;;;;18.83;1.98;;;;;;;;;;5093043;28;20039;-40
2021/01/08 09:35:00;;;;;;;22.67;2.40;;;;;;;;;;5093162;28;20133;-41
2021/01/08 09:37:28;;;;;;;16.08;1.73;;;;;;;;;;5093103;28;20023;-41
2021/01/08 09:39:56;;;;;;;19.00;2.00;;;;;;;;;;5092808;28;20476;-42
2021/01/08 09:42:23;;;;;;;17.83;1.83;;;;;;;;;;5092904;28;20016;-42
2021/01/08 09:44:50;;;;;;;16.77;2.17;;;;;;;;;;5092841;28;20388;-41
2021/01/08 09:47:17;;;;;;;15.40;1.80;;;;;;;;;;5092654;28;20395;-41
2021/01/08 09:49:55;;;;;;;10.93;2.35;;;;;;;;;;5092791;28;20020;-41
2021/01/08 09:52:29;;;;;;;17.98;2.28;;;;;;;;;;5093150;28;20016;-41
2021/01/08 09:54:56;;;;;;;19.75;2.20;;;;;;;;;;5092922;28;20472;-42
2021/01/08 09:57:36;;;;;;;14.02;2.08;;;;;;;;;;5092548;28;20099;-42
2021/01/08 10:00:10;;;;;;;9.25;2.60;;;;;;;;;;5092791;28;20031;-42
2021/01/08 10:02:43;;;;;;;21.10;3.60;;;;;;;;;;5092754;28;20024;-44
2021/01/08 10:05:27;;;;;;;17.98;2.63;;;;;;;;;;5093157;28;20487;-41
2021/01/08 10:07:55;;;;;;;17.63;2.40;;;;;;;;;;5092514;28;20417;-42
2021/01/08 10:10:28;;;;;;;15.63;2.38;;;;;;;;;;5092685;28;20425;-41
2021/01/08 10:12:55;;;;;;;15.82;2.22;;;;;;;;;;5092451;28;20039;-42
2021/01/08 10:15:35;;;;;;;15.45;2.65;;;;;;;;;;5092481;28;20507;-42
2021/01/08 10:18:09;;;;;;;15.13;2.38;;;;;;;;;;5092789;28;20027;-43
2021/01/08 10:20:43;;;;;;;6.95;2.03;;;;;;;;;;5092238;28;20048;-41
2021/01/08 10:23:20;;;;;;;9.32;2.08;;;;;;;;;;5092348;28;20032;-42
2021/01/08 10:25:47;;;;;;;23.92;1.60;;;;;;;;;;5092549;28;20043;-41
2021/01/08 10:28:14;;;;;;;12.32;2.13;;;;;;;;;;5092588;28;20559;-44
2021/01/08 10:30:42;;;;;;;12.43;1.80;;;;;;;;;;5091985;28;20144;-43
2021/01/08 10:33:09;;;;;;;18.13;2.50;;;;;;;;;;5092204;28;20081;-43
2021/01/08 10:35:45;;;;;;;19.50;2.40;;;;;;;;;;5074134;28;20020;-42
2021/01/08 10:38:12;;;;;;;15.25;2.35;;;;;;;;;;5094353;28;20058;-42
2021/01/08 10:40:39;;;;;;;10.90;2.13;;;;;;;;;;5083248;28;20021;-42
2021/01/08 10:43:06;;;;;;;10.73;2.83;;;;;;;;;;5037950;28;20044;-44
2021/01/08 10:45:33;;;;;;;15.93;2.88;;;;;;;;;;5055940;28;20481;-41
2021/01/08 10:48:00;;;;;;;14.35;2.15;;;;;;;;;;5055887;28;20028;-42
2021/01/08 10:50:27;;;;;;;20.35;2.22;;;;;;;;;;5066936;28;20047;-44
2021/01/08 10:52:54;;;;;;;23.27;2.50;;;;;;;;;;5065177;28;20016;-40
2021/01/08 10:55:21;;;;;;;19.75;3.10;;;;;;;;;;5067503;28;20035;-41
2021/01/08 10:57:48;;;;;;;18.65;3.03;;;;;;;;;;5067911;28;20031;-41
2021/01/08 11:00:17;;;;;;;22.05;2.80;;;;;;;;;;5057312;28;20036;-41
2021/01/08 11:02:44;;;;;;;33.75;3.83;;;;;;;;;;5065736;28;20040;-40
2021/01/08 11:05:11;;;;;;;27.02;3.05;;;;;;;;;;5069619;28;20021;-41
2021/01/08 11:07:38;;;;;;;22.92;3.03;;;;;;;;;;5075155;28;20416;-41
2021/01/08 11:10:06;;;;;;;40.58;3.42;;;;;;;;;;5074982;28;20024;-45
2021/01/08 11:12:34;;;;;;;29.75;2.67;;;;;;;;;;5074976;28;20435;-42
2021/01/08 11:15:05;;;;;;;23.25;2.33;;;;;;;;;;5080068;28;20072;-42
2021/01/08 11:17:32;;;;;;;16.35;2.30;;;;;;;;;;5070307;28;20083;-43
2021/01/08 11:19:59;;;;;;;37.13;3.45;;;;;;;;;;5053312;28;20032;-57
2021/01/08 11:22:26;;;;;;;29.88;2.88;;;;;;;;;;5073475;28;20484;-49
2021/01/08 11:24:53;;;;;;;42.85;4.05;;;;;;;;;;5080904;28;20029;-49
2021/01/08 11:27:20;;;;;;;33.83;3.47;;;;;;;;;;5074277;28;20016;-46
2021/01/08 11:29:47;;;;;;;54.80;4.82;;;;;;;;;;5073090;28;20051;-46
2021/01/08 11:32:14;;;;;;;211.45;15.50;;;;;;;;;;5062729;28;20058;-47
2021/01/08 11:34:42;;;;;;;95.63;9.55;;;;;;;;;;5074172;28;20016;-48
2021/01/08 11:37:09;;;;;;;82.28;7.50;;;;;;;;;;5074090;28;20475;-44
2021/01/08 11:39:36;;;;;;;91.60;7.03;;;;;;;;;;5070289;28;20029;-45
2021/01/08 11:42:03;;;;;;;46.35;4.88;;;;;;;;;;5073225;28;20388;-44
2021/01/08 11:44:30;;;;;;;37.97;4.75;;;;;;;;;;5072549;28;20032;-45
2021/01/08 11:46:57;;;;;;;48.70;6.50;;;;;;;;;;5074033;28;20031;-51
2021/01/08 11:49:24;;;;;;;53.75;5.68;;;;;;;;;;5073046;28;20047;-49
2021/01/08 11:51:51;;;;;;;52.92;5.55;;;;;;;;;;5073511;28;20020;-50
2021/01/08 11:54:18;;;;;;;51.58;6.30;;;;;;;;;;5073954;28;20017;-53
2021/01/08 11:56:45;;;;;;;51.80;5.22;;;;;;;;;;5073614;28;20476;-49
2021/01/08 11:59:12;;;;;;;53.83;5.53;;;;;;;;;;5073464;28;20033;-50
2021/01/08 12:01:39;;;;;;;54.88;5.88;;;;;;;;;;5073779;28;20383;-50
2021/01/08 12:04:06;;;;;;;72.22;6.50;;;;;;;;;;5073415;28;20040;-49
2021/01/08 12:06:34;;;;;;;56.42;5.25;;;;;;;;;;5073422;28;20480;-47
2021/01/08 12:09:02;;;;;;;57.67;4.68;;;;;;;;;;5073547;28;20024;-45
2021/01/08 12:11:29;;;;;;;33.85;3.97;;;;;;;;;;5073465;28;20408;-45
2021/01/08 12:13:59;;;;;;;30.38;3.55;;;;;;;;;;5073549;28;20055;-45
2021/01/08 12:16:33;;;;;;;60.67;4.63;;;;;;;;;;5073232;28;20229;-46
2021/01/08 12:19:00;;;;;;;55.00;4.38;;;;;;;;;;5068629;28;20043;-54
2021/01/08 12:21:30;;;;;;;50.28;3.35;;;;;;;;;;5068180;28;20093;-51
2021/01/08 12:23:57;;;;;;;69.63;5.05;;;;;;;;;;5067910;28;20032;-46
2021/01/08 12:26:24;;;;;;;63.72;5.85;;;;;;;;;;5072541;28;20023;-47
2021/01/08 12:28:51;;;;;;;68.50;4.57;;;;;;;;;;5072645;28;20480;-47
2021/01/08 12:31:25;;;;;;;55.72;5.15;;;;;;;;;;5072108;28;20020;-43
2021/01/08 12:33:53;;;;;;;62.80;5.35;;;;;;;;;;5066979;28;20100;-47
2021/01/08 12:36:20;;;;;;;39.20;3.75;;;;;;;;;;5053065;28;20019;-47
2021/01/08 12:38:47;;;;;;;39.90;3.45;;;;;;;;;;5059425;28;20021;-44
2021/01/08 12:41:15;;;;;;;37.75;3.80;;;;;;;;;;5053978;28;20025;-45
2021/01/08 12:43:42;;;;;;;47.00;5.35;;;;;;;;;;5055749;28;20037;-44
2021/01/08 12:46:09;;;;;;;53.10;4.93;;;;;;;;;;5057884;28;20055;-45
2021/01/08 12:48:36;;;;;;;59.47;7.13;;;;;;;;;;5072021;28;20031;-47
2021/01/08 12:51:03;;;;;;;55.05;5.90;;;;;;;;;;5071483;28;20049;-48
2021/01/08 12:53:30;;;;;;;46.97;4.70;;;;;;;;;;5071976;28;20032;-48
2021/01/08 12:55:57;;;;;;;26.65;3.67;;;;;;;;;;5072018;28;20108;-49
2021/01/08 12:58:24;;;;;;;32.67;4.05;;;;;;;;;;5072521;28;20021;-46
2021/01/08 13:00:51;;;;;;;30.83;3.55;;;;;;;;;;5066244;28;20024;-45
2021/01/08 13:03:18;;;;;;;54.78;5.20;;;;;;;;;;5072170;28;20033;-43
2021/01/08 13:05:48;;;;;;;50.75;5.18;;;;;;;;;;5072205;28;20479;-44
2021/01/08 13:08:16;;;;;;;81.47;7.38;;;;;;;;;;5072227;28;20037;-44
2021/01/08 13:10:43;;;;;;;74.53;7.20;;;;;;;;;;5071730;28;20090;-41
2021/01/08 13:13:11;;;;;;;69.20;8.38;;;;;;;;;;5072099;28;20506;-42
2021/01/08 13:15:38;;;;;;;64.10;7.72;;;;;;;;;;5054476;28;20020;-44
2021/01/08 13:18:08;;;;;;;69.13;5.90;;;;;;;;;;5072062;28;20020;-44
2021/01/08 13:20:35;;;;;;;65.65;7.22;;;;;;;;;;5071458;28;20105;-43
2021/01/08 13:23:02;;;;;;;46.00;4.50;;;;;;;;;;5071671;28;20044;-43
2021/01/08 13:25:29;;;;;;;45.47;4.55;;;;;;;;;;5071863;28;20028;-44
2021/01/08 13:27:56;;;;;;;47.35;4.55;;;;;;;;;;5071808;28;20032;-45
2021/01/08 13:30:23;;;;;;;61.13;5.55;;;;;;;;;;5071932;28;20491;-43
2021/01/08 13:32:50;;;;;;;41.83;4.78;;;;;;;;;;5071241;28;20032;-45
2021/01/08 13:35:17;;;;;;;21.60;3.35;;;;;;;;;;5071637;28;20475;-43
2021/01/08 13:37:44;;;;;;;68.95;5.13;;;;;;;;;;5067272;28;20067;-53
2021/01/08 13:40:11;;;;;;;54.08;4.90;;;;;;;;;;5058875;28;20122;-43
2021/01/08 13:42:38;;;;;;;32.22;4.63;;;;;;;;;;5071630;28;20080;-45
2021/01/08 13:45:06;;;;;;;44.35;4.05;;;;;;;;;;5071735;28;20028;-44
2021/01/08 13:47:33;;;;;;;49.13;4.60;;;;;;;;;;5060211;28;20039;-47
2021/01/08 13:50:01;;;;;;;28.38;2.95;;;;;;;;;;5071275;28;20036;-47
2021/01/08 13:52:28;;;;;;;54.58;3.65;;;;;;;;;;5060942;28;20028;-47
2021/01/08 13:54:55;;;;;;;26.38;3.50;;;;;;;;;;5064290;28;20037;-45
2021/01/08 13:57:22;;;;;;;41.20;3.63;;;;;;;;;;5064160;28;20070;-46
2021/01/08 13:59:49;;;;;;;34.45;4.00;;;;;;;;;;5048605;28;20074;-45
2021/01/08 14:02:16;;;;;;;34.72;3.85;;;;;;;;;;5071521;28;20017;-44
2021/01/08 14:04:43;;;;;;;24.58;3.88;;;;;;;;;;5070959;28;20158;-42
2021/01/08 14:07:10;;;;;;;19.45;2.90;;;;;;;;;;5056591;28;21225;-42
2021/01/08 14:09:37;;;;;;;38.88;3.83;;;;;;;;;;5063132;28;20410;-43
2021/01/08 14:12:04;;;;;;;49.20;4.22;;;;;;;;;;5062865;28;20427;-45
2021/01/08 14:14:31;;;;;;;29.25;3.30;;;;;;;;;;5075714;28;20023;-45
2021/01/08 14:16:58;;;;;;;50.90;4.28;;;;;;;;;;5063486;28;20021;-47
2021/01/08 14:19:25;;;;;;;52.50;3.95;;;;;;;;;;5067200;28;20025;-43
2021/01/08 14:21:52;;;;;;;27.25;2.72;;;;;;;;;;5073067;28;20114;-46
2021/01/08 14:24:19;;;;;;;48.30;4.63;;;;;;;;;;5075229;28;20551;-44
2021/01/08 14:26:46;;;;;;;60.33;6.65;;;;;;;;;;5076038;28;20033;-45
2021/01/08 14:29:13;;;;;;;61.63;6.80;;;;;;;;;;5075520;28;20033;-45
2021/01/08 14:31:44;;;;;;;60.85;6.30;;;;;;;;;;5063781;28;20065;-46
2021/01/08 14:34:15;;;;;;;56.05;6.05;;;;;;;;;;5058619;28;20017;-45
2021/01/08 14:36:43;;;;;;;75.20;7.88;;;;;;;;;;5055593;28;20017;-46
2021/01/08 14:39:11;;;;;;;63.30;6.97;;;;;;;;;;5056151;28;20100;-47
2021/01/08 14:41:38;;;;;;;35.38;4.43;;;;;;;;;;5055874;28;20409;-42